Time;durP1;ratioP1;P1;durP2;ratioP2;P2;SDS_P1;SDS_P2;PMS_P1;PMS_P2;Temp;Humidity;BMP_temperature;BMP_pressure;BME280_temperature;BME280_humidity;BME280_pressure;Samples;Min_cycle;Max_cycle;Signal;HPM_P1;HPM_P2
2023/07/05 00:01:47;;;;;;;;;;;14.40;99.90;;;;;;4986521;28;19921;-92
2023/07/05 00:04:13;;;;;;;;;;;14.40;99.90;;;;;;4998177;28;19933;-91
2023/07/05 00:06:38;;;;;;;;;;;14.40;99.90;;;;;;5002744;28;19964;-92
2023/07/05 00:09:04;;;;;;;;;;;14.40;99.90;;;;;;5009283;28;19921;-92
2023/07/05 00:11:30;;;;;;;;;;;14.30;99.90;;;;;;4993230;28;19921;-92
2023/07/05 00:13:55;;;;;;;;;;;14.40;99.90;;;;;;4999285;28;19928;-91
2023/07/05 00:16:21;;;;;;;;;;;14.30;99.90;;;;;;4987743;28;19921;-93
2023/07/05 00:18:47;;;;;;;;;;;14.40;99.90;;;;;;5012243;28;19921;-92
2023/07/05 00:21:12;;;;;;;;;;;14.30;99.90;;;;;;5010277;28;20029;-92
2023/07/05 00:23:39;;;;;;;;;;;14.30;99.90;;;;;;5005586;28;19934;-93
2023/07/05 00:26:05;;;;;;;;;;;14.30;99.90;;;;;;5023277;28;19913;-87
2023/07/05 00:28:33;;;;;;;;;;;14.20;99.90;;;;;;5029038;28;20266;-91
2023/07/05 00:31:02;;;;;;;;;;;14.10;99.90;;;;;;5006772;28;19925;-91
2023/07/05 00:33:27;;;;;;;;;;;14.10;99.90;;;;;;5004785;28;19922;-92
2023/07/05 00:35:54;;;;;;;;;;;14.10;99.90;;;;;;5012882;28;19947;-90
2023/07/05 00:38:20;;;;;;;;;;;14.20;99.90;;;;;;5027119;28;19913;-90
2023/07/05 00:40:46;;;;;;;;;;;14.20;99.90;;;;;;5025226;28;19913;-92
2023/07/05 00:43:12;;;;;;;;;;;14.20;99.90;;;;;;4991765;28;19929;-92
2023/07/05 00:45:44;;;;;;;;;;;14.20;99.90;;;;;;5013483;28;19968;-89
2023/07/05 00:48:12;;;;;;;;;;;14.20;99.90;;;;;;5012680;28;20055;-91
2023/07/05 00:50:40;;;;;;;;;;;14.20;99.90;;;;;;5006905;28;20008;-91
2023/07/05 00:53:06;;;;;;;;;;;14.20;99.90;;;;;;5002680;28;19921;-93
2023/07/05 00:55:32;;;;;;;;;;;14.20;99.90;;;;;;5006711;28;20008;-90
2023/07/05 00:57:58;;;;;;;;;;;14.20;99.90;;;;;;5007873;28;19941;-93
2023/07/05 01:00:24;;;;;;;;;;;14.20;99.90;;;;;;4998692;28;19953;-93
2023/07/05 01:02:52;;;;;;;;;;;14.20;99.90;;;;;;5012980;28;19943;-92
2023/07/05 01:05:18;;;;;;;;;;;14.20;99.90;;;;;;4993994;28;19934;-93
2023/07/05 01:07:44;;;;;;;;;;;14.20;99.90;;;;;;5004537;28;20369;-92
2023/07/05 01:10:15;;;;;;;;;;;14.20;99.90;;;;;;5013729;28;19922;-93
2023/07/05 01:12:44;;;;;;;;;;;14.10;99.90;;;;;;5014462;28;20428;-93
2023/07/05 01:15:10;;;;;;;;;;;14.10;99.90;;;;;;5010192;28;19922;-93
2023/07/05 01:17:38;;;;;;;;;;;14.10;99.90;;;;;;5011318;28;20246;-93
2023/07/05 01:20:22;;;;;;;;;;;14.10;99.90;;;;;;5006630;28;19922;-92
2023/07/05 01:23:06;;;;;;;;;;;14.00;99.90;;;;;;5009692;28;19976;-91
2023/07/05 01:25:35;;;;;;;;;;;14.00;99.90;;;;;;5014097;28;19928;-92
2023/07/05 01:28:01;;;;;;;;;;;14.00;99.90;;;;;;5009059;28;19933;-92
2023/07/05 01:30:50;;;;;;;;;;;14.00;99.90;;;;;;5015513;28;19932;-91
2023/07/05 01:33:19;;;;;;;;;;;14.00;99.90;;;;;;5003564;28;19922;-91
2023/07/05 01:35:48;;;;;;;;;;;14.00;99.90;;;;;;5006147;28;20012;-91
2023/07/05 01:38:13;;;;;;;;;;;13.90;99.90;;;;;;5006859;28;19932;-90
2023/07/05 01:40:39;;;;;;;;;;;13.90;99.90;;;;;;4990607;28;20004;-88
2023/07/05 01:43:11;;;;;;;;;;;13.90;99.90;;;;;;5015004;28;19928;-90
2023/07/05 01:45:36;;;;;;;;;;;13.90;99.90;;;;;;5005802;28;19921;-91
2023/07/05 01:48:12;;;;;;;;;;;13.90;99.90;;;;;;4985405;28;19928;-93
2023/07/05 01:50:48;;;;;;;;;;;13.90;99.90;;;;;;5010217;28;19949;-90
2023/07/05 01:53:19;;;;;;;;;;;13.90;99.90;;;;;;4999142;28;19932;-91
2023/07/05 01:55:47;;;;;;;;;;;13.80;99.90;;;;;;5002407;28;20350;-91
2023/07/05 01:58:17;;;;;;;;;;;14.20;99.90;;;;;;5018766;28;19941;-91
2023/07/05 02:00:45;;;;;;;;;;;13.90;99.90;;;;;;5010808;28;19929;-92
2023/07/05 02:03:12;;;;;;;;;;;13.80;99.90;;;;;;5008545;28;19971;-92
2023/07/05 02:05:38;;;;;;;;;;;13.80;99.90;;;;;;4995878;28;20033;-91
2023/07/05 02:08:04;;;;;;;;;;;13.90;99.90;;;;;;5005180;28;20020;-93
2023/07/05 02:10:30;;;;;;;;;;;13.80;99.90;;;;;;4991184;28;19921;-92
2023/07/05 02:12:56;;;;;;;;;;;13.90;99.90;;;;;;5010635;28;19921;-92
2023/07/05 02:15:22;;;;;;;;;;;13.90;99.90;;;;;;4996362;28;19921;-93
2023/07/05 02:17:48;;;;;;;;;;;13.90;99.90;;;;;;5004042;28;20141;-91
2023/07/05 02:20:13;;;;;;;;;;;13.80;99.90;;;;;;5010435;28;19976;-90
2023/07/05 02:22:39;;;;;;;;;;;13.80;99.90;;;;;;4998711;28;19980;-93
2023/07/05 02:25:05;;;;;;;;;;;13.80;99.90;;;;;;5009627;28;19921;-91
2023/07/05 02:27:31;;;;;;;;;;;13.80;99.90;;;;;;5009669;28;19922;-92
2023/07/05 02:29:56;;;;;;;;;;;13.80;99.90;;;;;;4994777;28;19921;-90
2023/07/05 02:32:23;;;;;;;;;;;13.80;99.90;;;;;;4995670;28;19944;-91
2023/07/05 02:34:48;;;;;;;;;;;13.80;99.90;;;;;;5010865;28;20437;-90
2023/07/05 02:37:14;;;;;;;;;;;13.80;99.90;;;;;;5011621;28;20016;-92
2023/07/05 02:39:40;;;;;;;;;;;13.80;99.90;;;;;;4983157;28;19964;-91
2023/07/05 02:42:06;;;;;;;;;;;13.80;99.90;;;;;;4994379;28;19922;-91
2023/07/05 02:44:32;;;;;;;;;;;13.70;99.90;;;;;;4994091;28;19972;-90
2023/07/05 02:46:57;;;;;;;;;;;13.70;99.90;;;;;;5005819;28;20358;-91
2023/07/05 02:49:23;;;;;;;;;;;13.70;99.90;;;;;;4989302;28;20015;-87
2023/07/05 02:51:49;;;;;;;;;;;13.80;99.90;;;;;;5007971;28;20374;-92
2023/07/05 02:54:14;;;;;;;;;;;13.70;99.90;;;;;;5013722;28;20364;-89
2023/07/05 02:56:40;;;;;;;;;;;14.20;99.90;;;;;;5008922;28;19922;-90
2023/07/05 02:59:06;;;;;;;;;;;13.70;99.90;;;;;;5004386;28;20400;-89
2023/07/05 03:01:31;;;;;;;;;;;13.70;99.90;;;;;;5002212;28;19922;-89
2023/07/05 03:03:57;;;;;;;;;;;13.80;99.90;;;;;;5010097;28;20384;-90
2023/07/05 03:06:22;;;;;;;;;;;13.80;99.90;;;;;;5012740;28;19957;-87
2023/07/05 03:08:48;;;;;;;;;;;13.70;99.90;;;;;;5010192;28;19960;-88
2023/07/05 03:11:14;;;;;;;;;;;13.70;99.90;;;;;;5009864;28;19992;-90
2023/07/05 03:13:39;;;;;;;;;;;13.70;99.90;;;;;;5014362;28;19983;-90
2023/07/05 03:16:05;;;;;;;;;;;13.70;99.90;;;;;;5011134;28;19983;-89
2023/07/05 03:18:31;;;;;;;;;;;13.70;99.90;;;;;;4995459;28;20036;-89
2023/07/05 03:20:57;;;;;;;;;;;13.80;99.90;;;;;;5012346;28;19972;-86
2023/07/05 03:23:22;;;;;;;;;;;13.70;99.90;;;;;;4998255;28;19921;-90
2023/07/05 03:25:56;;;;;;;;;;;13.70;99.90;;;;;;5005025;28;19928;-92
2023/07/05 03:28:22;;;;;;;;;;;13.70;99.90;;;;;;4981029;28;19922;-94
2023/07/05 03:30:55;;;;;;;;;;;13.80;99.90;;;;;;4997090;28;19922;-92
2023/07/05 03:33:21;;;;;;;;;;;13.80;99.90;;;;;;4999758;28;19929;-92
2023/07/05 03:35:53;;;;;;;;;;;13.70;99.90;;;;;;4996215;28;19922;-91
2023/07/05 03:38:19;;;;;;;;;;;13.80;99.90;;;;;;5000675;28;19925;-90
2023/07/05 03:40:45;;;;;;;;;;;13.80;99.90;;;;;;5010370;28;19928;-91
2023/07/05 03:43:10;;;;;;;;;;;13.80;99.90;;;;;;4996335;28;19933;-93
2023/07/05 03:45:36;;;;;;;;;;;13.80;99.90;;;;;;5011549;28;19976;-91
2023/07/05 03:48:01;;;;;;;;;;;13.80;99.90;;;;;;4996797;28;19929;-90
2023/07/05 03:50:27;;;;;;;;;;;13.80;99.90;;;;;;5002659;28;19972;-91
2023/07/05 03:52:53;;;;;;;;;;;13.80;99.90;;;;;;5022072;28;19968;-92
2023/07/05 03:55:19;;;;;;;;;;;13.90;99.90;;;;;;5010144;28;20671;-93
2023/07/05 03:57:45;;;;;;;;;;;13.90;99.90;;;;;;5013391;28;19929;-91
2023/07/05 04:00:11;;;;;;;;;;;13.90;99.90;;;;;;5013597;28;19922;-92
2023/07/05 04:02:36;;;;;;;;;;;13.90;99.90;;;;;;5005897;28;19957;-90
2023/07/05 04:05:02;;;;;;;;;;;13.90;99.90;;;;;;5011327;28;20043;-90
2023/07/05 04:07:29;;;;;;;;;;;14.00;99.90;;;;;;5007823;28;19928;-93
2023/07/05 04:09:54;;;;;;;;;;;14.00;99.90;;;;;;5003045;28;19933;-93
2023/07/05 04:12:20;;;;;;;;;;;14.00;99.90;;;;;;5012024;28;19921;-91
2023/07/05 04:14:46;;;;;;;;;;;14.10;99.90;;;;;;5011103;28;19921;-91
2023/07/05 04:17:11;;;;;;;;;;;14.10;99.90;;;;;;5005181;28;20302;-91
2023/07/05 04:19:37;;;;;;;;;;;14.10;99.90;;;;;;4983223;28;20380;-91
2023/07/05 04:22:02;;;;;;;;;;;14.10;99.90;;;;;;4983651;28;19949;-92
2023/07/05 04:24:28;;;;;;;;;;;14.20;99.90;;;;;;5009755;28;19921;-94
2023/07/05 04:26:54;;;;;;;;;;;14.20;99.90;;;;;;5004052;28;20314;-94
2023/07/05 04:29:19;;;;;;;;;;;14.30;99.90;;;;;;5010949;28;19925;-93
2023/07/05 04:31:45;;;;;;;;;;;14.30;99.90;;;;;;4984119;28;19928;-91
2023/07/05 04:34:10;;;;;;;;;;;14.40;99.90;;;;;;5012517;28;19928;-93
2023/07/05 04:36:36;;;;;;;;;;;14.40;99.90;;;;;;4995501;28;19922;-93
2023/07/05 04:39:02;;;;;;;;;;;14.40;99.90;;;;;;4996022;28;19980;-92
2023/07/05 04:41:28;;;;;;;;;;;14.50;99.90;;;;;;4999098;28;19997;-91
2023/07/05 04:43:53;;;;;;;;;;;14.50;99.90;;;;;;4986263;28;20131;-92
2023/07/05 04:46:19;;;;;;;;;;;14.50;99.90;;;;;;4999197;28;20021;-92
2023/07/05 04:48:45;;;;;;;;;;;14.50;99.90;;;;;;5002364;28;19922;-91
2023/07/05 04:51:11;;;;;;;;;;;14.50;99.90;;;;;;5001025;28;20156;-92
2023/07/05 04:53:36;;;;;;;;;;;14.50;99.90;;;;;;5011827;28;19921;-90
2023/07/05 04:56:02;;;;;;;;;;;14.50;99.90;;;;;;4987726;28;19945;-91
2023/07/05 04:58:28;;;;;;;;;;;14.50;99.90;;;;;;5017998;28;19925;-93
2023/07/05 05:00:59;;;;;;;;;;;14.50;99.90;;;;;;4985266;28;19977;-90
2023/07/05 05:03:24;;;;;;;;;;;14.50;99.90;;;;;;4997899;28;19921;-91
2023/07/05 05:05:51;;;;;;;;;;;14.40;99.90;;;;;;5003862;28;19988;-93
2023/07/05 05:08:19;;;;;;;;;;;14.40;99.90;;;;;;5002526;28;19921;-91
2023/07/05 05:10:44;;;;;;;;;;;14.30;99.90;;;;;;5002873;28;19933;-91
2023/07/05 05:13:10;;;;;;;;;;;14.30;99.90;;;;;;5007321;28;19922;-92
2023/07/05 05:15:38;;;;;;;;;;;14.20;99.90;;;;;;5008613;28;20361;-94
2023/07/05 05:18:08;;;;;;;;;;;14.20;99.90;;;;;;4986673;28;20429;-91
2023/07/05 05:20:33;;;;;;;;;;;14.10;99.90;;;;;;4986310;28;19925;-93
2023/07/05 05:22:59;;;;;;;;;;;14.10;99.90;;;;;;4982081;28;20369;-93
2023/07/05 05:25:26;;;;;;;;;;;14.00;99.90;;;;;;5003768;28;19922;-92
2023/07/05 05:27:51;;;;;;;;;;;14.00;99.90;;;;;;5001875;28;19929;-94
2023/07/05 05:30:17;;;;;;;;;;;14.00;99.90;;;;;;4979405;28;20277;-91
2023/07/05 05:32:44;;;;;;;;;;;14.00;99.90;;;;;;5006900;28;20388;-92
2023/07/05 05:35:10;;;;;;;;;;;14.00;99.90;;;;;;5016011;28;19922;-92
2023/07/05 05:37:36;;;;;;;;;;;14.10;99.90;;;;;;5003984;28;19929;-93
2023/07/05 05:40:01;;;;;;;;;;;14.10;99.90;;;;;;5013876;28;19922;-90
2023/07/05 05:42:29;;;;;;;;;;;14.10;99.90;;;;;;5001927;28;19922;-93
2023/07/05 05:44:54;;;;;;;;;;;14.10;99.90;;;;;;5009196;28;19929;-95
2023/07/05 05:47:20;;;;;;;;;;;14.10;99.90;;;;;;4998050;28;19972;-92
2023/07/05 05:49:46;;;;;;;;;;;14.10;99.90;;;;;;5002108;28;19922;-93
2023/07/05 05:52:11;;;;;;;;;;;14.20;99.90;;;;;;4994587;28;19964;-92
2023/07/05 05:54:37;;;;;;;;;;;14.20;99.90;;;;;;5010648;28;19960;-93
2023/07/05 05:57:02;;;;;;;;;;;14.80;99.90;;;;;;5015815;28;20003;-95
2023/07/05 05:59:28;;;;;;;;;;;14.30;99.90;;;;;;5003149;28;20410;-91
2023/07/05 06:01:54;;;;;;;;;;;14.40;99.90;;;;;;5009764;28;19926;-89
2023/07/05 06:04:19;;;;;;;;;;;14.40;99.90;;;;;;4999087;28;20374;-90
2023/07/05 06:06:45;;;;;;;;;;;14.50;99.90;;;;;;5006887;28;19922;-91
2023/07/05 06:09:10;;;;;;;;;;;14.60;99.90;;;;;;5015168;28;19932;-91
2023/07/05 06:11:38;;;;;;;;;;;14.70;99.90;;;;;;5005535;28;20202;-90
2023/07/05 06:14:03;;;;;;;;;;;14.70;99.90;;;;;;5014471;28;19937;-91
2023/07/05 06:16:29;;;;;;;;;;;14.80;99.90;;;;;;5010733;28;19929;-89
2023/07/05 06:18:54;;;;;;;;;;;14.70;99.90;;;;;;5014833;28;19944;-89
2023/07/05 06:21:20;;;;;;;;;;;14.80;99.90;;;;;;4990781;28;19933;-86
2023/07/05 06:23:46;;;;;;;;;;;14.70;99.90;;;;;;5005983;28;19976;-90
2023/07/05 06:26:11;;;;;;;;;;;14.70;99.90;;;;;;5008874;28;20421;-89
2023/07/05 06:28:37;;;;;;;;;;;14.60;99.90;;;;;;4989875;28;19928;-91
2023/07/05 06:31:06;;;;;;;;;;;14.70;99.90;;;;;;4996154;28;19922;-93
2023/07/05 06:33:32;;;;;;;;;;;14.60;99.90;;;;;;4999375;28;20278;-91
2023/07/05 06:36:00;;;;;;;;;;;14.60;99.90;;;;;;4994929;28;19925;-89
2023/07/05 06:38:26;;;;;;;;;;;14.60;99.90;;;;;;5019365;28;19930;-90
2023/07/05 06:40:52;;;;;;;;;;;14.70;99.90;;;;;;5011687;28;19948;-90
2023/07/05 06:43:18;;;;;;;;;;;14.70;99.90;;;;;;5015461;28;20333;-89
2023/07/05 06:45:50;;;;;;;;;;;14.80;99.90;;;;;;5017703;28;19972;-92
2023/07/05 06:48:16;;;;;;;;;;;15.00;99.90;;;;;;4999892;28;19921;-90
2023/07/05 06:50:41;;;;;;;;;;;15.00;99.90;;;;;;5012622;28;19928;-91
2023/07/05 06:53:07;;;;;;;;;;;15.00;99.90;;;;;;5011532;28;19979;-92
2023/07/05 06:55:33;;;;;;;;;;;14.90;99.90;;;;;;4998153;28;19921;-91
2023/07/05 06:57:58;;;;;;;;;;;14.90;99.90;;;;;;5000412;28;20397;-88
2023/07/05 07:00:24;;;;;;;;;;;14.70;99.90;;;;;;5006837;28;19922;-91
2023/07/05 07:02:49;;;;;;;;;;;14.70;99.90;;;;;;4999752;28;19999;-94
2023/07/05 07:05:15;;;;;;;;;;;14.80;99.90;;;;;;4997641;28;20042;-93
2023/07/05 07:07:41;;;;;;;;;;;14.90;99.90;;;;;;4978057;28;19922;-95
2023/07/05 07:10:07;;;;;;;;;;;14.90;99.90;;;;;;5010808;28;19941;-93
2023/07/05 07:12:33;;;;;;;;;;;14.90;99.90;;;;;;5006551;28;19921;-93
2023/07/05 07:14:59;;;;;;;;;;;15.00;99.90;;;;;;5004959;28;19921;-89
2023/07/05 07:17:26;;;;;;;;;;;15.10;99.90;;;;;;4992768;28;19928;-92
2023/07/05 07:19:52;;;;;;;;;;;15.20;99.90;;;;;;4993255;28;19961;-91
2023/07/05 07:22:17;;;;;;;;;;;15.30;99.90;;;;;;5012710;28;19957;-91
2023/07/05 07:24:43;;;;;;;;;;;15.40;99.90;;;;;;5010948;28;20012;-87
2023/07/05 07:27:09;;;;;;;;;;;15.40;99.90;;;;;;4990555;28;19922;-91
2023/07/05 07:29:35;;;;;;;;;;;15.40;99.90;;;;;;5009959;28;19922;-91
2023/07/05 07:32:03;;;;;;;;;;;15.30;99.90;;;;;;5009234;28;19947;-90
2023/07/05 07:34:31;;;;;;;;;;;15.10;99.90;;;;;;5008916;28;19928;-90
2023/07/05 07:36:57;;;;;;;;;;;14.90;99.90;;;;;;5005473;28;19932;-94
2023/07/05 07:39:22;;;;;;;;;;;15.00;99.90;;;;;;4995564;28;20353;-86
2023/07/05 07:41:48;;;;;;;;;;;15.10;99.90;;;;;;5009986;28;19922;-86
2023/07/05 07:44:16;;;;;;;;;;;15.10;99.90;;;;;;5011445;28;20016;-87
2023/07/05 07:46:42;;;;;;;;;;;15.10;99.90;;;;;;5003086;28;19941;-88
2023/07/05 07:49:09;;;;;;;;;;;15.20;99.90;;;;;;5011999;28;19921;-91
2023/07/05 07:51:35;;;;;;;;;;;15.10;99.90;;;;;;4991534;28;19922;-86
2023/07/05 07:54:02;;;;;;;;;;;14.90;99.90;;;;;;5008165;28;19980;-89
2023/07/05 07:56:27;;;;;;;;;;;14.70;99.90;;;;;;5002992;28;19921;-88
2023/07/05 07:58:54;;;;;;;;;;;14.50;99.90;;;;;;5010922;28;19978;-87
2023/07/05 08:01:24;;;;;;;;;;;14.40;99.90;;;;;;5005608;28;19926;-86
2023/07/05 08:03:51;;;;;;;;;;;14.30;99.90;;;;;;4996624;28;20056;-86
2023/07/05 08:06:17;;;;;;;;;;;14.10;99.90;;;;;;5002314;28;21002;-89
2023/07/05 08:08:42;;;;;;;;;;;13.90;99.90;;;;;;5003896;28;19941;-88
2023/07/05 08:11:08;;;;;;;;;;;13.80;99.90;;;;;;5002831;28;19928;-89
2023/07/05 08:13:34;;;;;;;;;;;13.70;99.90;;;;;;5009407;28;20265;-89
2023/07/05 08:16:00;;;;;;;;;;;13.50;99.90;;;;;;5008174;28;19921;-87
2023/07/05 08:18:27;;;;;;;;;;;13.40;99.90;;;;;;5010610;28;19922;-88
2023/07/05 08:20:53;;;;;;;;;;;13.30;99.90;;;;;;5006661;28;19921;-88
2023/07/05 08:23:19;;;;;;;;;;;13.00;99.90;;;;;;5011926;28;19926;-88
2023/07/05 08:25:45;;;;;;;;;;;12.90;99.90;;;;;;5004849;28;19960;-88
2023/07/05 08:28:13;;;;;;;;;;;12.80;99.90;;;;;;5010842;28;20277;-91
2023/07/05 08:30:39;;;;;;;;;;;12.70;99.90;;;;;;5009998;28;19928;-88
2023/07/05 08:33:04;;;;;;;;;;;12.60;99.90;;;;;;4991728;28;19921;-87
2023/07/05 08:35:31;;;;;;;;;;;12.60;99.90;;;;;;5009314;28;19933;-89
2023/07/05 08:37:56;;;;;;;;;;;12.60;99.90;;;;;;5007390;28;19921;-87
2023/07/05 08:40:26;;;;;;;;;;;12.50;99.90;;;;;;5006007;28;19975;-89
2023/07/05 08:43:01;;;;;;;;;;;12.50;99.90;;;;;;5009810;28;19964;-88
2023/07/05 08:45:42;;;;;;;;;;;12.40;99.90;;;;;;5009064;28;19929;-89
2023/07/05 08:48:08;;;;;;;;;;;12.40;99.90;;;;;;5008785;28;20369;-89
2023/07/05 08:50:37;;;;;;;;;;;12.40;99.90;;;;;;5003975;28;19971;-88
2023/07/05 08:53:05;;;;;;;;;;;12.30;99.90;;;;;;5009520;28;19964;-91
2023/07/05 08:55:42;;;;;;;;;;;12.20;99.90;;;;;;5008433;28;19953;-88
2023/07/05 08:58:09;;;;;;;;;;;12.30;99.90;;;;;;5009495;28;20004;-90
2023/07/05 09:00:48;;;;;;;;;;;12.20;99.90;;;;;;5008563;28;20004;-88
2023/07/05 09:03:14;;;;;;;;;;;12.20;99.90;;;;;;5009186;28;19988;-86
2023/07/05 09:05:57;;;;;;;;;;;12.10;99.90;;;;;;4997341;28;20330;-87
2023/07/05 09:08:23;;;;;;;;;;;12.20;99.90;;;;;;5010422;28;19941;-87
2023/07/05 09:11:01;;;;;;;;;;;12.10;99.90;;;;;;5011214;28;19921;-85
2023/07/05 09:13:32;;;;;;;;;;;12.20;99.90;;;;;;5014194;28;19921;-88
2023/07/05 09:16:06;;;;;;;;;;;12.20;99.90;;;;;;4996100;28;19930;-87
2023/07/05 09:18:31;;;;;;;;;;;12.30;99.90;;;;;;5010345;28;19921;-87
2023/07/05 09:20:57;;;;;;;;;;;12.30;99.90;;;;;;5011915;28;19926;-85
2023/07/05 09:23:27;;;;;;;;;;;12.40;99.90;;;;;;5015158;28;20039;-86
2023/07/05 09:25:56;;;;;;;;;;;12.50;99.90;;;;;;5014033;28;19941;-87
2023/07/05 09:28:29;;;;;;;;;;;12.50;99.90;;;;;;5014280;28;20014;-92
2023/07/05 09:30:55;;;;;;;;;;;12.60;99.90;;;;;;5015379;28;20269;-89
2023/07/05 09:33:25;;;;;;;;;;;12.70;99.90;;;;;;5014314;28;19936;-88
2023/07/05 09:35:51;;;;;;;;;;;12.70;99.90;;;;;;5014567;28;19922;-88
2023/07/05 09:38:22;;;;;;;;;;;12.80;99.90;;;;;;5009889;28;19944;-87
2023/07/05 09:41:12;;;;;;;;;;;12.80;99.90;;;;;;5011194;28;19969;-86
2023/07/05 09:43:38;;;;;;;;;;;12.90;99.90;;;;;;5009999;28;19922;-86
2023/07/05 09:46:13;;;;;;;;;;;12.90;99.90;;;;;;4998192;28;19933;-89
2023/07/05 09:48:43;;;;;;;;;;;13.00;99.90;;;;;;5011538;28;19922;-87
2023/07/05 09:51:11;;;;;;;;;;;13.00;99.90;;;;;;5006026;28;20011;-90
2023/07/05 09:53:39;;;;;;;;;;;13.00;99.90;;;;;;5014489;28;19921;-91
2023/07/05 09:56:05;;;;;;;;;;;13.00;99.90;;;;;;5012779;28;21183;-88
2023/07/05 09:58:33;;;;;;;;;;;13.10;99.90;;;;;;5013080;28;20324;-90
2023/07/05 10:01:04;;;;;;;;;;;13.10;99.90;;;;;;5011672;28;19925;-91
2023/07/05 10:03:43;;;;;;;;;;;13.10;99.90;;;;;;5011935;28;19925;-87
2023/07/05 10:06:11;;;;;;;;;;;13.20;99.90;;;;;;5007069;28;19955;-91
2023/07/05 10:08:41;;;;;;;;;;;13.30;99.90;;;;;;5010897;28;19926;-90
2023/07/05 10:11:18;;;;;;;;;;;13.40;99.90;;;;;;5000986;28;19957;-89
2023/07/05 10:13:43;;;;;;;;;;;13.60;99.90;;;;;;5003826;28;19971;-88
2023/07/05 10:16:09;;;;;;;;;;;13.90;99.90;;;;;;5013108;28;19922;-88
2023/07/05 10:18:40;;;;;;;;;;;14.10;99.90;;;;;;4995843;28;20357;-90
2023/07/05 10:21:15;;;;;;;;;;;14.30;99.90;;;;;;5012029;28;19979;-87
2023/07/05 10:23:41;;;;;;;;;;;14.40;99.90;;;;;;5009601;28;19922;-91
2023/07/05 10:26:06;;;;;;;;;;;14.60;99.90;;;;;;5007549;28;19925;-89
2023/07/05 10:28:35;;;;;;;;;;;14.80;99.90;;;;;;4987252;28;20008;-86
2023/07/05 10:31:03;;;;;;;;;;;15.00;99.90;;;;;;4995486;28;19975;-89
2023/07/05 10:33:30;;;;;;;;;;;15.20;99.90;;;;;;5005444;28;20334;-89
2023/07/05 10:36:04;;;;;;;;;;;15.40;99.90;;;;;;5013598;28;19921;-88
2023/07/05 10:38:31;;;;;;;;;;;15.50;99.90;;;;;;5009897;28;20282;-90
2023/07/05 10:41:00;;;;;;;;;;;15.30;99.90;;;;;;5011419;28;19921;-89
2023/07/05 10:43:28;;;;;;;;;;;15.10;99.90;;;;;;5011771;28;19983;-87
2023/07/05 10:45:53;;;;;;;;;;;15.00;99.90;;;;;;5010008;28;19949;-86
2023/07/05 10:48:24;;;;;;;;;;;15.30;99.90;;;;;;5012304;28;19951;-89
2023/07/05 10:50:49;;;;;;;;;;;15.50;99.90;;;;;;5006417;28;19922;-85
2023/07/05 10:53:17;;;;;;;;;;;15.50;99.90;;;;;;5009162;28;19922;-87
2023/07/05 10:55:43;;;;;;;;;;;15.60;99.90;;;;;;5010539;28;20052;-86
2023/07/05 10:58:12;;;;;;;;;;;15.80;99.90;;;;;;5010718;28;19953;-89
2023/07/05 11:00:40;;;;;;;;;;;15.90;99.90;;;;;;5004493;28;19983;-87
2023/07/05 11:03:11;;;;;;;;;;;15.90;99.90;;;;;;5005110;28;19944;-85
2023/07/05 11:05:45;;;;;;;;;;;16.20;99.90;;;;;;5009339;28;19922;-87
2023/07/05 11:08:23;;;;;;;;;;;16.60;99.90;;;;;;5009564;28;20361;-89
2023/07/05 11:10:50;;;;;;;;;;;16.60;99.90;;;;;;5004017;28;19922;-86
2023/07/05 11:13:16;;;;;;;;;;;16.50;99.90;;;;;;5006991;28;19922;-89
2023/07/05 11:15:42;;;;;;;;;;;16.60;99.90;;;;;;5007407;28;20399;-89
2023/07/05 11:18:15;;;;;;;;;;;16.80;99.90;;;;;;5008978;28;19944;-86
2023/07/05 11:20:41;;;;;;;;;;;16.80;99.90;;;;;;5006577;28;19960;-87
2023/07/05 11:23:09;;;;;;;;;;;16.80;99.90;;;;;;5005213;28;19969;-86
2023/07/05 11:25:53;;;;;;;;;;;16.90;99.90;;;;;;5012784;28;19976;-89
2023/07/05 11:28:31;;;;;;;;;;;16.90;99.90;;;;;;5002550;28;19976;-87
2023/07/05 11:30:57;;;;;;;;;;;16.70;99.90;;;;;;5009577;28;20290;-88
2023/07/05 11:33:23;;;;;;;;;;;16.70;99.90;;;;;;5007858;28;19971;-86
2023/07/05 11:35:50;;;;;;;;;;;16.80;99.90;;;;;;4985766;28;20060;-87
2023/07/05 11:38:34;;;;;;;;;;;16.90;99.90;;;;;;5005444;28;19944;-85
2023/07/05 11:41:00;;;;;;;;;;;17.10;99.90;;;;;;5003969;28;19969;-85
2023/07/05 11:43:32;;;;;;;;;;;17.20;99.90;;;;;;5005839;28;19973;-88
2023/07/05 11:45:58;;;;;;;;;;;17.40;99.90;;;;;;5003219;28;19925;-86
2023/07/05 11:48:37;;;;;;;;;;;17.30;99.90;;;;;;5004137;28;19926;-85
2023/07/05 11:51:03;;;;;;;;;;;17.40;99.90;;;;;;5005714;28;19972;-87
2023/07/05 11:53:31;;;;;;;;;;;17.50;99.90;;;;;;5007109;28;19956;-88
2023/07/05 11:55:58;;;;;;;;;;;17.50;99.90;;;;;;5002418;28;19928;-89
2023/07/05 11:58:26;;;;;;;;;;;17.50;99.90;;;;;;5007381;28;19933;-88
2023/07/05 12:00:55;;;;;;;;;;;17.40;99.90;;;;;;5001349;28;19972;-88
2023/07/05 12:03:21;;;;;;;;;;;17.40;99.90;;;;;;4987714;28;19921;-88
2023/07/05 12:06:13;;;;;;;;;;;17.30;99.90;;;;;;5000468;28;19965;-87
2023/07/05 12:08:40;;;;;;;;;;;17.20;99.90;;;;;;5007191;28;19971;-89
2023/07/05 12:11:06;;;;;;;;;;;16.90;99.90;;;;;;4995681;28;19922;-88
2023/07/05 12:13:33;;;;;;;;;;;16.00;99.90;;;;;;4999252;28;19933;-89
2023/07/05 12:15:59;;;;;;;;;;;15.10;99.90;;;;;;5006172;28;20333;-86
2023/07/05 12:18:25;;;;;;;;;;;14.70;99.90;;;;;;5033583;28;19922;-87
2023/07/05 12:20:55;;;;;;;;;;;14.40;99.90;;;;;;5024765;28;19940;-86
2023/07/05 12:23:22;;;;;;;;;;;14.20;99.90;;;;;;5024970;28;19956;-87
2023/07/05 12:25:56;;;;;;;;;;;14.00;99.90;;;;;;5025198;28;19997;-87
2023/07/05 12:28:23;;;;;;;;;;;13.90;99.90;;;;;;5010671;28;19922;-86
2023/07/05 12:30:49;;;;;;;;;;;13.60;99.90;;;;;;5029673;28;19920;-88
2023/07/05 12:33:21;;;;;;;;;;;13.40;99.90;;;;;;5016963;28;19925;-86
2023/07/05 12:36:02;;;;;;;;;;;13.30;99.90;;;;;;5034491;28;19925;-88
2023/07/05 12:38:27;;;;;;;;;;;13.10;99.90;;;;;;5025568;28;19941;-89
2023/07/05 12:40:55;;;;;;;;;;;13.00;99.90;;;;;;4995367;28;19926;-87
2023/07/05 12:43:25;;;;;;;;;;;12.90;99.90;;;;;;4987970;28;19922;-88
2023/07/05 12:45:51;;;;;;;;;;;12.80;99.90;;;;;;5000081;28;19921;-87
2023/07/05 12:48:25;;;;;;;;;;;12.80;99.90;;;;;;4981493;28;19940;-86
2023/07/05 12:51:23;;;;;;;;;;;12.80;99.90;;;;;;4992173;28;20392;-87
2023/07/05 12:53:50;;;;;;;;;;;12.80;99.90;;;;;;5000472;28;19928;-88
2023/07/05 12:56:17;;;;;;;;;;;12.80;99.90;;;;;;5004807;28;19921;-86
2023/07/05 12:58:52;;;;;;;;;;;12.90;99.90;;;;;;5004776;28;19965;-86
2023/07/05 13:01:18;;;;;;;;;;;12.80;99.90;;;;;;5023799;28;19969;-89
2023/07/05 13:03:46;;;;;;;;;;;12.80;99.90;;;;;;5033949;28;19936;-89
2023/07/05 13:06:11;;;;;;;;;;;12.80;99.90;;;;;;5033502;28;20033;-90
2023/07/05 13:08:48;;;;;;;;;;;12.90;99.90;;;;;;5032128;28;20369;-90
2023/07/05 13:11:14;;;;;;;;;;;12.90;99.90;;;;;;5026815;28;19925;-88
2023/07/05 13:13:40;;;;;;;;;;;12.90;99.90;;;;;;5024990;28;19993;-88
2023/07/05 13:16:23;;;;;;;;;;;13.00;99.90;;;;;;5017554;28;19921;-92
2023/07/05 13:18:55;;;;;;;;;;;12.90;99.90;;;;;;5022719;28;19980;-92
2023/07/05 13:21:20;;;;;;;;;;;12.90;99.90;;;;;;5010231;28;19948;-91
2023/07/05 13:23:47;;;;;;;;;;;12.90;99.90;;;;;;4997855;28;19926;-92
2023/07/05 13:26:27;;;;;;;;;;;12.90;99.90;;;;;;5013356;28;19922;-92
2023/07/05 13:28:53;;;;;;;;;;;12.90;99.90;;;;;;5010241;28;19921;-89
2023/07/05 13:31:20;;;;;;;;;;;12.80;99.90;;;;;;5010683;28;19971;-84
2023/07/05 13:33:45;;;;;;;;;;;12.80;99.90;;;;;;5010879;28;19932;-88
2023/07/05 13:36:11;;;;;;;;;;;12.70;99.90;;;;;;5007116;28;19939;-87
2023/07/05 13:38:36;;;;;;;;;;;12.60;99.90;;;;;;5009315;28;19968;-92
2023/07/05 13:41:03;;;;;;;;;;;12.50;99.90;;;;;;4998742;28;19926;-91
2023/07/05 13:43:30;;;;;;;;;;;12.60;99.90;;;;;;5013210;28;19922;-88
2023/07/05 13:45:57;;;;;;;;;;;12.60;99.90;;;;;;5015523;28;19948;-88
2023/07/05 13:48:23;;;;;;;;;;;12.60;99.90;;;;;;5011910;28;19932;-87
2023/07/05 13:50:48;;;;;;;;;;;12.60;99.90;;;;;;5012929;28;19937;-89
2023/07/05 13:53:22;;;;;;;;;;;12.70;99.90;;;;;;5012395;28;19922;-88
2023/07/05 13:55:47;;;;;;;;;;;13.20;99.90;;;;;;5003993;28;19922;-89
2023/07/05 13:58:14;;;;;;;;;;;12.70;99.90;;;;;;5005505;28;19948;-87
2023/07/05 14:00:40;;;;;;;;;;;12.80;99.90;;;;;;5003692;28;19937;-87
2023/07/05 14:03:06;;;;;;;;;;;12.90;99.90;;;;;;5002419;28;20328;-90
2023/07/05 14:05:32;;;;;;;;;;;12.70;99.90;;;;;;5009823;28;19926;-91
2023/07/05 14:07:59;;;;;;;;;;;13.00;99.90;;;;;;5002848;28;19996;-88
2023/07/05 14:10:24;;;;;;;;;;;13.00;99.90;;;;;;5006142;28;19922;-90
2023/07/05 14:12:50;;;;;;;;;;;12.90;99.90;;;;;;5008913;28;19934;-89
2023/07/05 14:15:16;;;;;;;;;;;13.00;99.90;;;;;;5010545;28;19945;-89
2023/07/05 14:17:42;;;;;;;;;;;13.10;99.90;;;;;;5013974;28;20404;-91
2023/07/05 14:20:09;;;;;;;;;;;13.00;99.90;;;;;;5014088;28;20009;-91